Time;durP1;ratioP1;P1;durP2;ratioP2;P2;SDS_P1;SDS_P2;PMS_P1;PMS_P2;Temp;Humidity;BMP_temperature;BMP_pressure;BME280_temperature;BME280_humidity;BME280_pressure;Samples;Min_cycle;Max_cycle;Signal;HPM_P1;HPM_P2
2022/05/14 00:00:59;;;;;;;8.23;3.63;;;13.30;99.90;;;;;;4984542;28;20066;-81
2022/05/14 00:03:26;;;;;;;18.58;4.03;;;13.30;99.90;;;;;;4984542;28;20043;-81
2022/05/14 00:05:56;;;;;;;13.38;3.08;;;13.30;99.90;;;;;;4984178;28;20386;-81
2022/05/14 00:08:22;;;;;;;18.50;3.50;;;13.30;99.90;;;;;;4984400;28;20058;-81
2022/05/14 00:13:33;;;;;;;6.32;2.78;;;13.20;99.90;;;;;;4987960;28;20088;-81
2022/05/14 00:15:59;;;;;;;10.82;3.55;;;13.20;99.90;;;;;;4987959;28;20042;-81
2022/05/14 00:18:25;;;;;;;15.20;4.53;;;13.20;99.90;;;;;;4987780;28;20465;-81
2022/05/14 00:20:51;;;;;;;11.20;3.92;;;13.20;99.90;;;;;;4987821;28;20076;-81
2022/05/14 00:23:17;;;;;;;13.45;3.65;;;13.20;99.90;;;;;;4986416;28;20054;-81
2022/05/14 00:25:43;;;;;;;16.05;3.75;;;13.20;99.90;;;;;;4987635;28;20046;-81
2022/05/14 00:28:09;;;;;;;6.32;2.88;;;13.10;99.90;;;;;;4986214;28;20366;-81
2022/05/14 00:30:36;;;;;;;16.88;4.13;;;13.10;99.90;;;;;;4970330;28;20073;-82
2022/05/14 00:33:03;;;;;;;8.75;4.15;;;13.10;99.90;;;;;;4986335;28;20122;-81
2022/05/14 00:35:29;;;;;;;16.80;4.05;;;13.10;99.90;;;;;;4987782;28;20058;-81
2022/05/14 00:37:54;;;;;;;6.55;3.55;;;13.10;99.90;;;;;;4969892;28;20050;-81
2022/05/14 00:40:27;;;;;;;8.65;3.78;;;13.00;99.90;;;;;;4986765;28;20593;-81
2022/05/14 00:42:52;;;;;;;12.60;4.00;;;13.10;99.90;;;;;;4987486;28;20125;-81
2022/05/14 00:45:19;;;;;;;14.75;3.53;;;13.10;99.90;;;;;;4986127;28;20189;-81
2022/05/14 00:47:49;;;;;;;21.83;3.65;;;13.00;99.90;;;;;;4979125;28;20046;-81
2022/05/14 00:50:34;;;;;;;13.07;4.03;;;13.00;99.90;;;;;;4969613;28;20061;-81
2022/05/14 00:53:11;;;;;;;11.55;5.15;;;13.00;99.90;;;;;;4986648;28;20050;-81
2022/05/14 00:55:38;;;;;;;7.25;4.05;;;13.00;99.90;;;;;;4987308;28;20109;-81
2022/05/14 00:58:05;;;;;;;31.92;5.47;;;13.00;99.90;;;;;;4986316;28;20417;-81
2022/05/14 01:00:32;;;;;;;13.27;5.30;;;13.00;99.90;;;;;;4969808;28;20045;-81
2022/05/14 01:02:58;;;;;;;11.35;5.38;;;13.00;99.90;;;;;;5034392;23;20058;-79
2022/05/14 01:05:24;;;;;;;8.73;4.85;;;13.00;99.90;;;;;;5008708;28;20041;-79
2022/05/14 01:07:52;;;;;;;18.25;4.80;;;13.00;99.90;;;;;;5026239;28;20049;-79
2022/05/14 01:10:20;;;;;;;13.35;4.57;;;12.90;99.90;;;;;;5015264;28;20073;-79
2022/05/14 01:12:58;;;;;;;13.10;4.32;;;12.90;99.90;;;;;;5026099;28;20733;-79
2022/05/14 01:15:48;;;;;;;9.68;4.45;;;12.90;99.90;;;;;;5025544;28;20052;-79
2022/05/14 01:18:14;;;;;;;10.25;4.88;;;12.90;99.90;;;;;;5025424;28;20045;-79
2022/05/14 01:20:40;;;;;;;5.20;3.30;;;12.90;99.90;;;;;;5024104;28;20395;-79
2022/05/14 01:23:27;;;;;;;14.10;5.55;;;12.90;99.90;;;;;;5025062;28;20064;-79
2022/05/14 01:26:29;;;;;;;22.20;5.47;;;12.80;99.90;;;;;;5024471;28;20053;-79
2022/05/14 01:29:02;;;;;;;11.13;4.05;;;12.90;99.90;;;;;;5025802;28;20935;-79
2022/05/14 01:31:29;;;;;;;9.18;5.05;;;12.80;99.90;;;;;;5026053;28;20458;-79
2022/05/14 01:33:58;;;;;;;20.42;6.35;;;12.80;99.90;;;;;;5025448;28;20125;-79
2022/05/14 01:36:24;;;;;;;10.60;4.95;;;12.80;99.90;;;;;;5022577;28;20540;-79
2022/05/14 01:38:50;;;;;;;26.00;6.63;;;12.70;99.90;;;;;;5024913;28;20043;-79
2022/05/14 01:41:15;;;;;;;9.02;3.78;;;12.70;99.90;;;;;;5024144;28;20128;-79
2022/05/14 01:43:42;;;;;;;22.45;5.22;;;12.70;99.90;;;;;;5024177;28;20037;-79
2022/05/14 01:46:09;;;;;;;10.38;4.63;;;12.70;99.90;;;;;;5023672;28;20103;-79
2022/05/14 01:48:34;;;;;;;9.95;4.80;;;12.70;99.90;;;;;;5025366;28;20048;-80
2022/05/14 01:51:00;;;;;;;17.85;5.72;;;12.60;99.90;;;;;;5024611;28;20045;-79
2022/05/14 01:53:26;;;;;;;6.88;4.57;;;12.60;99.90;;;;;;5024060;28;20041;-79
2022/05/14 01:55:51;;;;;;;20.23;6.47;;;12.60;99.90;;;;;;5024999;28;20048;-79
2022/05/14 02:01:01;;;;;;;7.32;3.83;;;12.50;99.90;;;;;;5023335;28;20081;-80
2022/05/14 02:03:27;;;;;;;12.40;4.47;;;12.50;99.90;;;;;;5025251;28;20532;-79
2022/05/14 02:05:53;;;;;;;11.80;3.85;;;12.50;99.90;;;;;;5002921;28;20559;-79
2022/05/14 02:08:18;;;;;;;9.45;4.35;;;12.50;99.90;;;;;;4987456;28;20064;-79
2022/05/14 02:10:44;;;;;;;9.32;4.93;;;12.40;99.90;;;;;;5024551;28;20495;-79
2022/05/14 02:13:10;;;;;;;12.85;4.80;;;12.40;99.90;;;;;;5019043;28;20045;-79
2022/05/14 02:15:36;;;;;;;15.50;5.43;;;12.40;99.90;;;;;;5012495;28;20056;-79
2022/05/14 02:18:02;;;;;;;20.92;4.85;;;12.40;99.90;;;;;;5022849;28;20116;-79
2022/05/14 02:20:28;;;;;;;11.98;4.65;;;12.40;99.90;;;;;;5025142;28;20072;-79
2022/05/14 02:22:54;;;;;;;23.88;6.80;;;12.40;99.90;;;;;;5023894;28;20483;-79
2022/05/14 02:25:20;;;;;;;6.20;4.20;;;12.30;99.90;;;;;;5024142;28;20049;-79
2022/05/14 02:27:46;;;;;;;17.42;6.57;;;12.30;99.90;;;;;;5024518;28;20586;-79
2022/05/14 02:30:12;;;;;;;14.60;4.82;;;12.30;99.90;;;;;;5023569;28;20112;-79
2022/05/14 02:32:38;;;;;;;17.55;4.82;;;12.30;99.90;;;;;;5024309;28;20049;-79
2022/05/14 02:35:05;;;;;;;6.85;5.40;;;12.20;99.90;;;;;;5023170;28;20665;-79
2022/05/14 02:37:31;;;;;;;15.02;5.30;;;12.20;99.90;;;;;;5024867;28;20421;-79
2022/05/14 02:39:57;;;;;;;21.05;6.00;;;12.20;99.90;;;;;;5021557;28;20495;-79
2022/05/14 02:42:22;;;;;;;12.82;4.38;;;12.20;99.90;;;;;;5015370;28;20042;-79
2022/05/14 02:44:48;;;;;;;12.55;5.70;;;12.20;99.90;;;;;;5015527;28;20068;-78
2022/05/14 02:47:15;;;;;;;18.05;3.85;;;12.10;99.90;;;;;;5022600;28;20060;-79
2022/05/14 02:49:40;;;;;;;16.23;5.50;;;12.10;99.90;;;;;;5024522;28;20071;-80
2022/05/14 02:52:06;;;;;;;19.15;4.47;;;12.10;99.90;;;;;;5023545;28;20670;-79
2022/05/14 02:54:32;;;;;;;9.43;4.93;;;12.10;99.90;;;;;;5022910;28;20084;-78
2022/05/14 02:56:58;;;;;;;12.10;4.00;;;12.10;99.90;;;;;;5023997;28;20049;-79
2022/05/14 02:59:26;;;;;;;18.33;5.38;;;12.10;99.90;;;;;;5022715;28;20053;-79
2022/05/14 03:01:52;;;;;;;10.23;4.57;;;12.00;99.90;;;;;;5022579;28;20407;-79
2022/05/14 03:04:31;;;;;;;14.65;5.68;;;12.00;99.90;;;;;;5022937;28;20041;-79
2022/05/14 03:06:58;;;;;;;21.85;5.88;;;12.00;99.90;;;;;;5018346;28;20045;-79
2022/05/14 03:09:25;;;;;;;12.82;4.30;;;12.00;99.90;;;;;;5013300;28;20376;-79
2022/05/14 03:11:51;;;;;;;11.38;4.68;;;11.90;99.90;;;;;;5023984;28;20041;-79
2022/05/14 03:14:16;;;;;;;12.05;5.18;;;12.00;99.90;;;;;;5023163;28;20033;-79
2022/05/14 03:16:43;;;;;;;32.70;6.45;;;11.90;99.90;;;;;;5013492;28;20381;-79
2022/05/14 03:19:10;;;;;;;13.40;5.53;;;11.90;99.90;;;;;;5002723;28;20050;-79
2022/05/14 03:21:36;;;;;;;9.27;4.15;;;11.80;99.90;;;;;;5006046;28;20081;-79
2022/05/14 03:24:02;;;;;;;9.98;4.57;;;11.80;99.90;;;;;;5022628;28;20041;-80
2022/05/14 03:26:28;;;;;;;10.68;5.68;;;11.80;99.90;;;;;;5023535;28;20403;-79
2022/05/14 03:28:53;;;;;;;11.90;4.07;;;11.80;99.90;;;;;;5022218;28;20049;-79
2022/05/14 03:31:19;;;;;;;13.30;6.13;;;11.80;99.90;;;;;;5022095;28;20049;-79
2022/05/14 03:33:45;;;;;;;11.52;4.60;;;11.80;99.90;;;;;;5024037;28;20075;-79
2022/05/14 03:36:11;;;;;;;9.18;4.50;;;11.70;99.90;;;;;;5022306;28;20085;-78
2022/05/14 03:38:37;;;;;;;16.38;5.75;;;11.70;99.90;;;;;;5005923;28;20065;-79
2022/05/14 03:41:04;;;;;;;12.02;4.25;;;11.70;99.90;;;;;;5021996;28;20041;-79
2022/05/14 03:43:30;;;;;;;4.88;3.58;;;11.60;99.90;;;;;;5025793;28;20054;-78
2022/05/14 03:45:57;;;;;;;12.73;3.50;;;11.60;99.90;;;;;;5027074;28;20041;-79
2022/05/14 03:48:25;;;;;;;12.18;5.00;;;11.70;99.90;;;;;;5027074;28;20119;-79
2022/05/14 03:50:51;;;;;;;9.65;4.88;;;11.60;99.90;;;;;;5026839;28;20480;-79
2022/05/14 03:53:17;;;;;;;9.07;5.18;;;11.60;99.90;;;;;;5026129;28;20068;-78
2022/05/14 03:55:42;;;;;;;7.70;4.15;;;11.60;99.90;;;;;;5026915;28;20044;-79
2022/05/14 03:58:08;;;;;;;13.90;4.97;;;11.60;99.90;;;;;;5005213;28;20279;-79
2022/05/14 04:00:34;;;;;;;6.25;4.45;;;11.50;99.90;;;;;;5015212;28;20034;-79
2022/05/14 04:02:59;;;;;;;6.70;4.20;;;11.50;99.90;;;;;;5026802;28;20060;-79
2022/05/14 04:05:25;;;;;;;12.23;4.70;;;11.50;99.90;;;;;;5026611;28;20052;-79
2022/05/14 04:07:51;;;;;;;11.15;4.15;;;11.50;99.90;;;;;;5024964;28;20057;-79
2022/05/14 04:10:16;;;;;;;14.98;3.70;;;11.50;99.90;;;;;;5026097;28;20041;-79
2022/05/14 04:12:42;;;;;;;5.30;4.20;;;11.50;99.90;;;;;;5026529;28;20041;-79
2022/05/14 04:15:09;;;;;;;10.93;4.63;;;11.50;99.90;;;;;;5008444;28;20042;-79
2022/05/14 04:17:34;;;;;;;8.75;3.97;;;11.50;99.90;;;;;;5008918;28;20045;-79
2022/05/14 04:20:00;;;;;;;7.47;4.20;;;11.40;99.90;;;;;;5027071;28;20283;-80
2022/05/14 04:22:25;;;;;;;10.40;5.05;;;11.40;99.90;;;;;;5024584;28;20041;-79
2022/05/14 04:24:51;;;;;;;7.50;4.93;;;11.40;99.90;;;;;;5026390;28;20377;-79
2022/05/14 04:27:17;;;;;;;8.02;4.10;;;11.40;99.90;;;;;;5025069;28;20049;-79
2022/05/14 04:29:42;;;;;;;5.28;3.75;;;11.40;99.90;;;;;;5026667;28;20046;-79
2022/05/14 04:32:08;;;;;;;13.80;4.63;;;11.40;99.90;;;;;;5026027;28;20120;-79
2022/05/14 04:34:34;;;;;;;18.17;4.43;;;11.40;99.90;;;;;;5006600;28;20089;-79
2022/05/14 04:36:59;;;;;;;8.98;5.03;;;11.40;99.90;;;;;;5019943;28;20133;-79
2022/05/14 04:39:31;;;;;;;18.25;5.80;;;11.40;99.90;;;;;;5024868;28;20041;-79
2022/05/14 04:42:01;;;;;;;8.65;4.07;;;11.40;99.90;;;;;;5005798;28;20057;-80
2022/05/14 04:44:28;;;;;;;12.32;5.47;;;11.40;99.90;;;;;;5026506;28;20494;-79
2022/05/14 04:46:54;;;;;;;10.30;4.63;;;11.50;99.90;;;;;;5026056;28;20053;-79
2022/05/14 04:49:20;;;;;;;12.45;5.03;;;11.50;99.90;;;;;;5024895;28;20040;-79
2022/05/14 04:51:46;;;;;;;12.63;4.72;;;11.40;99.90;;;;;;5025742;28;20146;-79
2022/05/14 04:54:12;;;;;;;7.28;4.13;;;11.50;99.90;;;;;;5022508;28;20119;-79
2022/05/14 04:56:37;;;;;;;15.07;4.63;;;11.50;99.90;;;;;;5012756;28;20046;-79
2022/05/14 04:59:03;;;;;;;13.70;4.75;;;11.50;99.90;;;;;;5004517;28;20072;-79
2022/05/14 05:01:29;;;;;;;23.77;5.28;;;11.50;99.90;;;;;;5025596;28;20119;-79
2022/05/14 05:03:55;;;;;;;15.10;5.07;;;11.50;99.90;;;;;;5025615;28;20046;-79
2022/05/14 05:06:23;;;;;;;22.50;3.95;;;11.50;99.90;;;;;;5004493;28;20138;-79
2022/05/14 05:08:51;;;;;;;8.43;4.53;;;11.60;99.90;;;;;;5014741;28;20125;-79
2022/05/14 05:11:18;;;;;;;6.43;3.75;;;11.60;99.90;;;;;;5025511;28;20053;-79
2022/05/14 05:13:44;;;;;;;8.60;4.15;;;11.60;99.90;;;;;;5026014;28;20140;-79
2022/05/14 05:16:10;;;;;;;12.50;4.45;;;11.60;99.90;;;;;;5024211;28;20095;-79
2022/05/14 05:18:36;;;;;;;12.80;3.63;;;11.60;99.90;;;;;;5024421;28;20049;-79
2022/05/14 05:21:01;;;;;;;8.68;5.15;;;11.60;99.90;;;;;;5024357;28;20053;-78
2022/05/14 05:23:27;;;;;;;15.00;4.60;;;11.70;99.90;;;;;;5023957;28;20450;-80
2022/05/14 05:25:57;;;;;;;10.80;4.53;;;11.70;99.90;;;;;;5025853;28;20045;-79
2022/05/14 05:28:24;;;;;;;9.82;4.47;;;11.70;99.90;;;;;;5024141;28;20045;-79
2022/05/14 05:30:50;;;;;;;13.75;5.65;;;11.70;99.90;;;;;;5025362;28;20076;-79
2022/05/14 05:33:19;;;;;;;16.80;5.60;;;11.80;99.90;;;;;;5023962;28;20040;-79
2022/05/14 05:35:45;;;;;;;15.20;4.85;;;11.80;99.90;;;;;;5025427;28;20050;-79
2022/05/14 05:38:10;;;;;;;7.20;4.57;;;11.80;99.90;;;;;;5023035;28;20368;-79
2022/05/14 05:40:37;;;;;;;16.50;4.50;;;11.90;99.90;;;;;;5024951;28;20044;-79
2022/05/14 05:43:08;;;;;;;8.20;3.97;;;11.90;99.90;;;;;;5024795;28;20143;-80
2022/05/14 05:45:34;;;;;;;11.15;4.22;;;11.90;99.90;;;;;;5023240;28;20503;-80
2022/05/14 05:48:00;;;;;;;6.28;3.30;;;11.90;99.90;;;;;;5005814;28;20080;-78
2022/05/14 05:50:26;;;;;;;6.00;4.40;;;12.00;99.90;;;;;;5007606;28;20042;-77
2022/05/14 05:52:52;;;;;;;6.25;3.47;;;12.00;99.90;;;;;;5019553;28;20047;-79
2022/05/14 05:58:03;;;;;;;7.22;3.47;;;12.10;99.90;;;;;;5022820;28;20060;-79
2022/05/14 06:00:29;;;;;;;8.38;3.40;;;12.20;99.90;;;;;;5023997;28;20045;-78
2022/05/14 06:02:56;;;;;;;13.60;4.63;;;12.20;99.90;;;;;;5006718;28;20052;-79
2022/05/14 06:05:22;;;;;;;10.13;4.18;;;12.30;99.90;;;;;;5024305;28;20123;-79
2022/05/14 06:07:47;;;;;;;5.10;2.95;;;12.30;99.90;;;;;;5023918;28;20053;-78
2022/05/14 06:10:16;;;;;;;10.05;3.83;;;12.40;99.90;;;;;;5024286;28;20069;-78
2022/05/14 06:12:41;;;;;;;9.73;3.97;;;12.40;99.90;;;;;;5024222;28;20088;-79
2022/05/14 06:15:13;;;;;;;13.38;4.47;;;12.50;99.90;;;;;;5021510;28;20049;-78
2022/05/14 06:17:38;;;;;;;15.52;4.63;;;12.50;99.90;;;;;;5022114;28;20046;-79
2022/05/14 06:20:06;;;;;;;7.30;4.43;;;12.60;99.90;;;;;;5005623;28;20161;-79
2022/05/14 06:22:32;;;;;;;6.97;3.63;;;12.60;99.90;;;;;;5023276;28;20053;-78
2022/05/14 06:24:57;;;;;;;7.72;3.85;;;12.70;99.90;;;;;;5024286;28;20260;-79
2022/05/14 06:27:23;;;;;;;7.70;3.03;;;12.70;99.90;;;;;;5023987;28;20511;-79
2022/05/14 06:29:52;;;;;;;16.85;4.18;;;12.80;99.90;;;;;;5024013;28;20038;-78
2022/05/14 06:32:17;;;;;;;5.45;2.53;;;12.90;99.90;;;;;;5006160;28;20045;-78
2022/05/14 06:34:43;;;;;;;7.97;3.47;;;12.90;99.90;;;;;;5024020;28;20129;-79
2022/05/14 06:37:08;;;;;;;15.45;4.53;;;12.90;99.90;;;;;;5021934;28;20049;-78
2022/05/14 06:39:34;;;;;;;9.52;3.28;;;13.00;99.90;;;;;;5021843;28;20049;-78
2022/05/14 06:42:00;;;;;;;13.00;2.95;;;13.00;99.90;;;;;;5022643;28;20084;-79
2022/05/14 06:44:25;;;;;;;12.82;3.25;;;13.10;99.90;;;;;;5022843;28;20048;-79
2022/05/14 06:46:51;;;;;;;9.23;2.80;;;13.10;99.90;;;;;;5022473;28;20049;-79
2022/05/14 06:49:16;;;;;;;13.88;3.03;;;13.20;99.90;;;;;;5023719;28;20403;-79
2022/05/14 06:51:42;;;;;;;4.50;3.30;;;13.20;99.90;;;;;;5006024;28;20136;-79
2022/05/14 06:54:10;;;;;;;3.40;2.78;;;13.20;99.90;;;;;;5012579;28;20073;-79
2022/05/14 06:56:41;;;;;;;11.90;3.08;;;13.20;99.90;;;;;;5021718;28;20037;-79
2022/05/14 06:59:07;;;;;;;24.15;3.55;;;13.30;99.90;;;;;;5023598;28;20042;-79
2022/05/14 07:01:35;;;;;;;6.10;3.10;;;13.30;99.90;;;;;;5022423;28;20056;-78
2022/05/14 07:06:49;;;;;;;13.60;3.00;;;13.40;99.90;;;;;;5022148;28;20132;-79
2022/05/14 07:09:27;;;;;;;6.00;2.53;;;13.40;99.90;;;;;;5021177;28;20129;-80
2022/05/14 07:11:56;;;;;;;5.82;2.38;;;13.40;99.90;;;;;;5022076;28;20049;-80
2022/05/14 07:14:24;;;;;;;9.27;2.65;;;13.50;99.90;;;;;;5023714;28;20056;-81
2022/05/14 07:16:51;;;;;;;4.03;2.30;;;13.50;99.90;;;;;;5023191;28;20042;-81
2022/05/14 07:19:17;;;;;;;5.25;2.80;;;13.60;99.90;;;;;;5008676;28;20132;-81
2022/05/14 07:21:45;;;;;;;7.88;2.80;;;13.70;99.90;;;;;;5026306;28;20471;-80
2022/05/14 07:24:15;;;;;;;5.72;1.85;;;13.70;99.90;;;;;;5025203;28;20067;-79
2022/05/14 07:26:41;;;;;;;10.10;2.88;;;13.70;99.90;;;;;;5027706;28;20042;-80
2022/05/14 07:29:09;;;;;;;5.57;1.65;;;13.70;99.90;;;;;;5026986;28;20381;-81
2022/05/14 07:31:36;;;;;;;13.40;2.75;;;13.80;99.90;;;;;;5027027;28;20452;-80
2022/05/14 07:34:02;;;;;;;9.88;3.05;;;13.80;99.90;;;;;;5027087;28;20044;-80
2022/05/14 07:36:32;;;;;;;6.47;2.38;;;13.80;99.90;;;;;;5033030;28;20077;-80
2022/05/14 07:39:04;;;;;;;13.45;3.50;;;13.90;99.90;;;;;;5015890;28;20076;-80
2022/05/14 07:41:32;;;;;;;3.60;2.28;;;13.90;99.90;;;;;;5029675;28;20037;-80
2022/05/14 07:44:01;;;;;;;3.97;2.42;;;13.90;99.90;;;;;;5026601;28;20045;-79
2022/05/14 07:46:34;;;;;;;5.47;2.83;;;13.90;99.90;;;;;;5026491;28;20403;-79
2022/05/14 07:49:01;;;;;;;4.82;2.67;;;13.90;99.90;;;;;;5027466;28;20045;-78
2022/05/14 07:51:27;;;;;;;7.93;2.97;;;14.00;99.90;;;;;;5026390;28;20120;-79
2022/05/14 07:53:53;;;;;;;7.65;2.38;;;14.00;99.90;;;;;;5025998;28;20528;-79
2022/05/14 07:56:19;;;;;;;9.07;2.88;;;14.00;99.90;;;;;;5017595;28;20442;-79
2022/05/14 07:58:46;;;;;;;10.75;2.38;;;14.00;99.90;;;;;;5026403;28;20041;-79
2022/05/14 08:01:12;;;;;;;5.35;2.05;;;14.10;99.90;;;;;;5025253;28;20518;-79
2022/05/14 08:03:38;;;;;;;10.90;3.15;;;14.10;99.90;;;;;;5036431;28;20093;-79
2022/05/14 08:06:04;;;;;;;11.13;2.45;;;14.10;99.90;;;;;;5029260;28;20645;-80
2022/05/14 08:08:30;;;;;;;12.05;2.33;;;14.10;99.90;;;;;;5034010;28;20037;-81
2022/05/14 08:10:56;;;;;;;10.20;3.22;;;14.10;99.90;;;;;;5025131;28;20084;-79
2022/05/14 08:13:24;;;;;;;6.78;3.47;;;14.20;99.90;;;;;;5035406;28;20190;-78
2022/05/14 08:15:50;;;;;;;5.90;2.35;;;14.20;99.90;;;;;;5029052;28;20519;-78
2022/05/14 08:18:17;;;;;;;7.65;3.03;;;14.20;99.90;;;;;;5022096;28;20043;-83
2022/05/14 08:20:44;;;;;;;21.88;3.03;;;14.20;99.90;;;;;;5009505;28;20049;-78
2022/05/14 08:25:59;;;;;;;6.22;2.78;;;14.30;99.90;;;;;;5025115;28;20132;-78
2022/05/14 08:28:26;;;;;;;3.95;2.00;;;14.40;99.90;;;;;;5020500;28;20041;-85
2022/05/14 08:30:52;;;;;;;5.38;2.40;;;14.40;99.90;;;;;;5005605;28;20038;-81
2022/05/14 08:33:19;;;;;;;4.18;3.15;;;14.50;99.90;;;;;;5021860;28;20060;-77
2022/05/14 08:35:46;;;;;;;10.25;3.15;;;14.60;99.90;;;;;;5021101;28;20059;-81
2022/05/14 08:38:13;;;;;;;8.88;3.33;;;14.60;99.90;;;;;;5022737;28;20033;-84
2022/05/14 08:40:51;;;;;;;7.32;2.50;;;14.70;99.90;;;;;;5024845;28;20066;-80
2022/05/14 08:43:25;;;;;;;6.38;2.60;;;14.70;99.90;;;;;;5022951;28;20061;-83
2022/05/14 08:45:50;;;;;;;14.32;3.47;;;14.80;99.90;;;;;;5024472;28;20129;-80
2022/05/14 08:48:30;;;;;;;21.48;3.50;;;14.80;99.90;;;;;;5023983;28;20491;-87
2022/05/14 08:51:08;;;;;;;7.85;2.35;;;14.80;99.90;;;;;;5024362;28;20041;-79
2022/05/14 08:53:37;;;;;;;11.13;3.28;;;14.90;99.90;;;;;;5005044;28;20045;-81
2022/05/14 08:56:20;;;;;;;3.83;1.67;;;14.90;99.90;;;;;;5023951;28;20116;-90
2022/05/14 08:59:13;;;;;;;4.82;2.53;;;15.00;99.90;;;;;;5025521;28;20546;-87
2022/05/14 09:01:42;;;;;;;5.93;2.53;;;15.00;99.90;;;;;;5023576;28;20517;-79
2022/05/14 09:04:12;;;;;;;8.45;2.80;;;15.10;99.90;;;;;;5023146;28;20065;-87
2022/05/14 09:06:38;;;;;;;4.35;2.63;;;15.10;99.90;;;;;;5022762;28;20095;-79
2022/05/14 09:09:06;;;;;;;5.93;2.45;;;15.10;99.90;;;;;;5045863;28;20038;-86
2022/05/14 09:11:44;;;;;;;13.82;3.15;;;15.10;99.90;;;;;;5024093;28;20045;-81
2022/05/14 09:14:34;;;;;;;3.22;1.63;;;15.20;99.90;;;;;;5023847;28;20125;-85
2022/05/14 09:17:10;;;;;;;11.23;2.92;;;15.10;99.90;;;;;;4994209;28;20046;-81
2022/05/14 09:19:38;;;;;;;7.05;2.80;;;15.20;99.90;;;;;;4980793;28;20042;-82
2022/05/14 09:22:13;;;;;;;5.93;3.13;;;15.20;99.90;;;;;;4986546;28;20697;-83
2022/05/14 09:24:45;;;;;;;10.02;3.17;;;15.20;99.90;;;;;;5005491;28;20046;-82
2022/05/14 09:27:19;;;;;;;5.18;2.17;;;15.30;99.90;;;;;;5003792;28;20053;-88
2022/05/14 09:29:46;;;;;;;6.28;2.45;;;15.40;99.90;;;;;;5004161;28;20060;-81
2022/05/14 09:32:20;;;;;;;4.22;2.40;;;15.40;99.90;;;;;;5011159;28;20044;-82
2022/05/14 09:34:48;;;;;;;10.48;3.42;;;15.40;99.90;;;;;;5023906;28;20038;-83
2022/05/14 09:37:20;;;;;;;7.05;2.08;;;15.40;99.90;;;;;;5022301;28;20041;-81
2022/05/14 09:39:59;;;;;;;9.40;2.95;;;15.50;99.90;;;;;;5024348;28;20384;-91
2022/05/14 09:42:31;;;;;;;6.60;2.63;;;15.40;99.90;;;;;;5024041;28;20694;-87
2022/05/14 09:44:57;;;;;;;4.40;2.40;;;15.40;99.90;;;;;;5025696;28;20052;-86
2022/05/14 09:47:31;;;;;;;9.48;2.13;;;15.40;99.90;;;;;;5022837;28;20037;-79
2022/05/14 09:50:02;;;;;;;4.47;2.25;;;15.50;99.90;;;;;;5019806;28;20041;-81
2022/05/14 09:52:34;;;;;;;10.15;3.35;;;15.50;99.90;;;;;;5004761;28;20053;-83
2022/05/14 09:55:03;;;;;;;9.80;3.65;;;15.50;99.90;;;;;;5020867;28;20061;-88
2022/05/14 09:57:37;;;;;;;8.63;2.83;;;15.50;99.90;;;;;;5022675;28;20045;-79
2022/05/14 10:00:14;;;;;;;5.70;2.40;;;15.50;99.90;;;;;;5019386;28;20041;-78
2022/05/14 10:03:07;;;;;;;11.43;3.55;;;15.60;99.90;;;;;;5020570;28;20096;-86
2022/05/14 10:06:01;;;;;;;7.55;2.22;;;15.60;99.90;;;;;;5035748;28;20042;-80
2022/05/14 10:08:46;;;;;;;13.32;2.72;;;15.60;99.90;;;;;;5020417;28;21195;-80
2022/05/14 10:11:49;;;;;;;5.18;2.15;;;15.70;99.90;;;;;;5020816;28;20054;-77
2022/05/14 10:14:41;;;;;;;21.77;3.70;;;15.70;99.90;;;;;;5021020;28;20538;-79
2022/05/14 10:17:19;;;;;;;3.92;2.97;;;15.70;99.90;;;;;;5006161;28;20057;-78
2022/05/14 10:20:00;;;;;;;6.07;2.28;;;15.70;99.90;;;;;;5018872;28;20411;-85
2022/05/14 10:29:10;;;;;;;7.70;2.90;;;15.80;99.90;;;;;;5021249;28;20499;-79
2022/05/14 10:31:57;;;;;;;5.60;2.10;;;15.90;99.90;;;;;;5020842;28;20046;-78
2022/05/14 10:34:39;;;;;;;10.00;3.75;;;15.90;99.90;;;;;;5022508;28;20048;-77
2022/05/14 10:37:14;;;;;;;;;;;15.80;99.90;;;;;;5021692;28;20132;-83
2022/05/14 10:39:50;;;;;;;5.38;2.58;;;15.80;99.90;;;;;;5024097;28;19924;-79
2022/05/14 10:42:25;;;;;;;12.23;3.40;;;15.90;99.90;;;;;;5020550;28;20047;-80
2022/05/14 10:44:57;;;;;;;3.60;2.60;;;15.90;99.90;;;;;;5023962;28;20672;-85
2022/05/14 10:47:24;;;;;;;16.63;2.63;;;15.90;99.90;;;;;;5023590;28;20046;-85
2022/05/14 10:50:06;;;;;;;9.75;2.70;;;15.90;99.90;;;;;;5023578;28;20041;-80
2022/05/14 10:52:32;;;;;;;10.52;3.53;;;16.00;99.90;;;;;;5021349;28;20045;-81
2022/05/14 10:54:58;;;;;;;12.40;2.35;;;16.00;99.90;;;;;;5021377;28;20038;-81
2022/05/14 10:57:31;;;;;;;15.07;4.32;;;16.10;99.90;;;;;;5020831;28;20068;-81
2022/05/14 11:00:10;;;;;;;12.13;2.83;;;16.10;99.90;;;;;;5021407;28;20428;-82
2022/05/14 11:02:53;;;;;;;7.15;2.95;;;16.10;99.90;;;;;;4998685;28;20057;-80
2022/05/14 11:05:30;;;;;;;17.67;2.58;;;16.10;99.90;;;;;;5021145;28;20095;-80
2022/05/14 11:08:07;;;;;;;9.25;2.65;;;16.10;99.90;;;;;;5001620;28;20514;-78
2022/05/14 11:10:35;;;;;;;14.40;2.97;;;16.20;99.90;;;;;;5021716;28;20042;-79
2022/05/14 11:13:23;;;;;;;4.05;2.28;;;16.20;99.90;;;;;;5017750;28;20041;-79
2022/05/14 11:15:59;;;;;;;9.07;3.05;;;16.20;99.90;;;;;;5012240;28;20079;-79
2022/05/14 11:18:25;;;;;;;5.75;2.75;;;16.30;99.90;;;;;;5018615;28;20136;-81
2022/05/14 11:21:03;;;;;;;5.50;1.77;;;16.30;99.90;;;;;;5014219;28;20117;-79
2022/05/14 11:23:30;;;;;;;3.83;2.08;;;16.40;99.90;;;;;;5009430;28;20073;-79
2022/05/14 11:26:13;;;;;;;12.48;2.45;;;16.40;99.90;;;;;;5034463;28;20121;-81
2022/05/14 11:28:40;;;;;;;3.95;2.38;;;16.40;99.90;;;;;;5019217;28;20037;-77
2022/05/14 11:31:24;;;;;;;4.95;2.10;;;16.50;99.90;;;;;;5020938;28;20037;-76
2022/05/14 11:33:52;;;;;;;8.52;2.25;;;16.40;99.90;;;;;;5022505;28;20451;-76
2022/05/14 11:36:20;;;;;;;9.10;2.65;;;16.50;99.90;;;;;;5021227;28;20038;-77
2022/05/14 11:38:52;;;;;;;11.55;1.95;;;16.50;99.90;;;;;;5021536;28;20506;-79
2022/05/14 11:41:31;;;;;;;2.60;1.98;;;16.50;99.90;;;;;;5019971;28;20042;-78
2022/05/14 11:43:56;;;;;;;6.30;2.38;;;16.60;99.90;;;;;;5020776;28;20108;-78
2022/05/14 11:46:29;;;;;;;7.18;2.40;;;16.60;99.90;;;;;;5019465;28;20041;-78
2022/05/14 11:49:24;;;;;;;5.30;2.75;;;16.60;99.90;;;;;;5019239;28;20038;-78
2022/05/14 11:51:59;;;;;;;12.15;2.05;;;16.60;99.90;;;;;;5020287;28;20986;-78
2022/05/14 11:54:52;;;;;;;8.48;2.78;;;16.60;99.90;;;;;;5019867;28;20037;-78
2022/05/14 11:57:27;;;;;;;4.28;2.45;;;16.70;99.90;;;;;;5019864;28;20052;-78
2022/05/14 12:00:06;;;;;;;14.73;3.35;;;16.70;99.90;;;;;;5020543;28;20050;-79
2022/05/14 12:02:49;;;;;;;4.95;1.98;;;16.70;99.90;;;;;;4964952;28;1117586;-79
2022/05/14 12:05:17;;;;;;;9.30;2.55;;;16.70;99.90;;;;;;5022278;28;20145;-79
2022/05/14 12:08:06;;;;;;;5.35;2.03;;;16.70;99.90;;;;;;5018924;28;20107;-80
2022/05/14 12:10:38;;;;;;;10.63;2.58;;;16.70;99.90;;;;;;5023796;28;20049;-78
2022/05/14 12:13:31;;;;;;;9.20;2.72;;;16.80;99.90;;;;;;5022871;28;20045;-80
2022/05/14 12:15:58;;;;;;;11.73;2.47;;;16.80;99.90;;;;;;5024107;28;20049;-79
2022/05/14 12:18:25;;;;;;;5.72;2.30;;;16.90;99.90;;;;;;5024500;28;20042;-79
2022/05/14 12:21:05;;;;;;;10.50;2.17;;;16.90;99.90;;;;;;5007337;28;20480;-79
2022/05/14 12:23:40;;;;;;;9.48;2.83;;;16.90;99.90;;;;;;5024878;28;20116;-79
2022/05/14 12:26:18;;;;;;;2.88;2.17;;;16.90;99.90;;;;;;5024345;28;20407;-79
2022/05/14 12:28:44;;;;;;;5.18;2.58;;;16.90;99.90;;;;;;5023882;28;20052;-80
2022/05/14 12:33:55;;;;;;;10.85;2.85;;;17.00;99.90;;;;;;5026739;28;20651;-77
2022/05/14 12:36:21;;;;;;;5.95;2.63;;;17.00;99.90;;;;;;5024911;28;20084;-79
2022/05/14 12:38:48;;;;;;;7.85;2.15;;;17.00;99.90;;;;;;5008103;28;20052;-79
2022/05/14 12:41:31;;;;;;;5.68;2.95;;;17.00;99.90;;;;;;5023609;28;20045;-78
2022/05/14 12:43:58;;;;;;;9.98;2.28;;;17.00;99.90;;;;;;5008650;28;20044;-78
2022/05/14 12:46:24;;;;;;;5.45;3.08;;;17.10;99.90;;;;;;5025932;28;20037;-79
2022/05/14 12:48:55;;;;;;;4.20;1.92;;;17.10;99.90;;;;;;5025063;28;20087;-80
2022/05/14 12:51:24;;;;;;;17.75;2.60;;;17.10;99.90;;;;;;5024674;28;20065;-77
2022/05/14 12:53:52;;;;;;;10.88;2.75;;;17.20;99.90;;;;;;5026391;28;20045;-78
2022/05/14 12:56:20;;;;;;;10.88;2.80;;;17.20;99.90;;;;;;5025713;28;20495;-78
2022/05/14 12:58:47;;;;;;;5.38;2.03;;;17.20;99.90;;;;;;5026247;28;20443;-78
2022/05/14 13:01:15;;;;;;;4.72;2.17;;;17.30;99.90;;;;;;5024340;28;20500;-80
2022/05/14 13:04:04;;;;;;;5.10;2.03;;;17.30;99.90;;;;;;5024122;28;20048;-79
2022/05/14 13:06:34;;;;;;;10.25;2.92;;;17.30;99.90;;;;;;5015354;28;20456;-79
2022/05/14 13:09:07;;;;;;;4.13;3.03;;;17.30;99.90;;;;;;5015897;28;20041;-79
2022/05/14 13:11:35;;;;;;;5.93;1.85;;;17.30;99.90;;;;;;5004255;28;20038;-79
2022/05/14 13:14:14;;;;;;;9.23;2.42;;;17.30;99.90;;;;;;5015087;28;20033;-79
2022/05/14 13:16:40;;;;;;;8.48;2.22;;;17.30;99.90;;;;;;5022187;28;20037;-79
2022/05/14 13:19:20;;;;;;;11.98;3.63;;;17.30;99.90;;;;;;5021831;28;20068;-78